createdAt,value
2023-02-16T00:21:15.417Z,27.79
2023-02-16T00:22:15.420Z,27.77
2023-02-16T00:23:15.441Z,27.79
2023-02-16T00:24:15.444Z,27.77
2023-02-16T00:25:15.455Z,27.75
2023-02-16T00:26:15.465Z,27.76
2023-02-16T00:27:15.462Z,27.75
2023-02-16T00:28:15.586Z,27.74
2023-02-16T00:29:15.501Z,27.76
2023-02-16T00:30:15.561Z,27.74
2023-02-16T00:31:15.593Z,27.75
2023-02-16T00:32:15.745Z,27.75
2023-02-16T00:33:15.567Z,27.74
2023-02-16T00:34:15.578Z,27.73
2023-02-16T00:35:15.662Z,27.73
2023-02-16T00:36:15.601Z,27.72
2023-02-16T00:37:15.618Z,27.71
2023-02-16T00:38:15.627Z,27.73
2023-02-16T00:39:15.646Z,27.70
2023-02-16T00:40:15.649Z,27.70
2023-02-16T00:41:15.658Z,27.70
2023-02-16T00:42:15.674Z,27.68
2023-02-16T00:43:15.690Z,27.68
2023-02-16T00:44:15.725Z,27.68
2023-02-16T00:45:15.726Z,27.70
2023-02-16T00:46:16.138Z,27.71
2023-02-16T00:47:15.775Z,27.70
2023-02-16T00:48:15.769Z,27.70
2023-02-16T00:49:15.797Z,27.67
2023-02-16T00:50:15.804Z,27.69
2023-02-16T00:51:25.586Z,27.68
2023-02-16T00:52:16.832Z,27.68
2023-02-16T00:53:15.832Z,27.68
2023-02-16T00:54:15.826Z,27.68
2023-02-16T00:55:15.826Z,27.67
2023-02-16T00:56:15.849Z,27.65
2023-02-16T00:57:15.857Z,27.65
2023-02-16T00:58:15.862Z,27.68
2023-02-16T00:59:15.875Z,27.68
2023-02-16T01:00:15.871Z,27.70
2023-02-16T01:01:15.913Z,27.68
2023-02-16T01:02:15.878Z,27.67
2023-02-16T01:03:15.877Z,27.67
2023-02-16T01:04:16.000Z,27.69
2023-02-16T01:05:15.907Z,27.69
2023-02-16T01:06:15.890Z,27.67
2023-02-16T01:07:15.895Z,27.68
2023-02-16T01:08:15.897Z,27.66
2023-02-16T01:09:15.891Z,27.69
2023-02-16T01:10:15.893Z,27.67
2023-02-16T01:11:15.905Z,27.66
2023-02-16T01:12:15.910Z,27.66
2023-02-16T01:13:15.914Z,27.66
2023-02-16T01:14:15.930Z,27.68
2023-02-16T01:15:15.933Z,27.67
2023-02-16T01:16:15.999Z,27.67
2023-02-16T01:17:15.935Z,27.63
2023-02-16T01:18:15.928Z,27.65
2023-02-16T01:19:15.931Z,27.64
2023-02-16T01:20:15.949Z,27.66
2023-02-16T01:21:15.945Z,27.63
2023-02-16T01:22:16.079Z,27.65
2023-02-16T01:23:15.968Z,27.63
2023-02-16T01:24:15.988Z,27.63
2023-02-16T01:25:16.023Z,27.64
2023-02-16T01:26:16.045Z,27.63
2023-02-16T01:27:16.065Z,27.63
2023-02-16T01:28:16.085Z,27.63
2023-02-16T01:29:16.244Z,27.63
2023-02-16T01:30:16.260Z,27.62
2023-02-16T01:31:16.242Z,27.62
2023-02-16T01:32:16.313Z,27.61
2023-02-16T01:33:16.199Z,27.61
2023-02-16T01:34:16.223Z,27.57
2023-02-16T01:35:16.245Z,27.59
2023-02-16T01:36:16.256Z,27.58
2023-02-16T01:37:16.280Z,27.58
2023-02-16T01:38:18.481Z,27.56
2023-02-16T01:39:16.332Z,27.55
2023-02-16T01:40:16.327Z,27.56
2023-02-16T01:41:16.354Z,27.57
2023-02-16T01:42:16.378Z,27.55
2023-02-16T01:43:16.390Z,27.54
2023-02-16T01:44:16.432Z,27.54
2023-02-16T01:45:16.445Z,27.57
2023-02-16T01:46:16.523Z,27.53
2023-02-16T01:47:16.519Z,27.58
2023-02-16T01:48:16.519Z,27.54
2023-02-16T01:49:16.542Z,27.54
2023-02-16T01:50:16.604Z,27.53
2023-02-16T01:51:16.587Z,27.55
2023-02-16T01:52:16.610Z,27.55
2023-02-16T01:53:16.632Z,27.55
2023-02-16T01:54:16.723Z,27.53
2023-02-16T01:55:16.663Z,27.49
2023-02-16T01:56:16.722Z,27.52
2023-02-16T01:57:16.707Z,27.49
2023-02-16T01:58:16.733Z,27.47
2023-02-16T01:59:16.767Z,27.48
2023-02-16T02:00:16.845Z,27.47
2023-02-16T02:01:16.824Z,27.48
2023-02-16T02:02:16.830Z,27.44
2023-02-16T02:03:16.850Z,27.44
2023-02-16T02:04:16.945Z,27.45
2023-02-16T02:05:16.891Z,27.44
2023-02-16T02:06:16.911Z,27.43
2023-02-16T02:07:16.928Z,27.42
2023-02-16T02:08:16.961Z,27.41
2023-02-16T02:09:16.989Z,27.41
2023-02-16T02:10:17.017Z,27.39
2023-02-16T02:11:17.046Z,27.38
2023-02-16T02:12:17.083Z,27.40
2023-02-16T02:13:17.110Z,27.42
2023-02-16T02:14:17.125Z,27.39
2023-02-16T02:15:17.171Z,27.41
2023-02-16T02:16:17.215Z,27.39
2023-02-16T02:17:17.232Z,27.38
2023-02-16T02:18:17.226Z,27.38
2023-02-16T02:19:18.109Z,27.36
2023-02-16T02:20:17.348Z,27.37
2023-02-16T02:21:17.307Z,27.35
2023-02-16T02:22:17.325Z,27.35
2023-02-16T02:23:17.369Z,27.33
2023-02-16T02:24:17.376Z,27.33
2023-02-16T02:25:17.393Z,27.34
2023-02-16T02:26:17.411Z,27.31
2023-02-16T02:27:17.439Z,27.32
2023-02-16T02:28:17.463Z,27.30
2023-02-16T02:29:17.524Z,27.29
2023-02-16T02:30:17.527Z,27.27
2023-02-16T02:31:17.624Z,27.27
2023-02-16T02:32:17.563Z,27.27
2023-02-16T02:33:17.641Z,27.26
2023-02-16T02:34:17.570Z,27.23
2023-02-16T02:35:17.582Z,27.22
2023-02-16T02:36:17.607Z,27.20
2023-02-16T02:37:17.619Z,27.21
2023-02-16T02:38:17.622Z,27.18
2023-02-16T02:39:17.649Z,27.19
2023-02-16T02:40:17.644Z,27.15
2023-02-16T02:41:17.658Z,27.16
2023-02-16T02:42:17.740Z,27.12
2023-02-16T02:43:17.679Z,27.10
2023-02-16T02:44:17.690Z,27.13
2023-02-16T02:45:17.700Z,27.11
2023-02-16T02:46:17.748Z,27.10
2023-02-16T02:47:17.724Z,27.10
2023-02-16T02:48:17.722Z,27.07
2023-02-16T02:49:17.739Z,27.07
2023-02-16T02:50:17.744Z,27.05
2023-02-16T02:51:17.752Z,27.06
2023-02-16T02:52:17.765Z,27.04
2023-02-16T02:53:17.789Z,27.04
2023-02-16T02:54:17.786Z,27.01
2023-02-16T02:55:18.622Z,27.02
2023-02-16T02:56:17.796Z,27.00
2023-02-16T02:57:18.624Z,27.00
2023-02-16T02:58:17.822Z,26.96
2023-02-16T02:59:17.825Z,26.96
2023-02-16T03:00:17.845Z,26.96
2023-02-16T03:01:17.848Z,26.93
2023-02-16T03:02:17.888Z,26.94
2023-02-16T03:03:17.850Z,26.90
2023-02-16T03:04:17.853Z,26.90
2023-02-16T03:05:17.868Z,26.89
2023-02-16T03:06:17.885Z,26.89
2023-02-16T03:07:17.894Z,26.91
2023-02-16T03:08:17.902Z,26.92
2023-02-16T03:09:17.950Z,26.88
2023-02-16T03:10:17.934Z,26.89
2023-02-16T03:11:17.944Z,26.86
2023-02-16T03:12:17.948Z,26.87
2023-02-16T03:13:17.987Z,26.86
2023-02-16T03:14:17.992Z,26.85
2023-02-16T03:15:18.002Z,26.84
2023-02-16T03:16:18.104Z,26.85
2023-02-16T03:17:18.040Z,26.86
2023-02-16T03:18:18.117Z,26.84
2023-02-16T03:19:18.124Z,26.83
2023-02-16T03:20:18.148Z,26.84
2023-02-16T03:21:18.199Z,26.85
2023-02-16T03:22:18.320Z,26.82
2023-02-16T03:23:18.263Z,26.84
2023-02-16T03:24:18.636Z,26.80
2023-02-16T03:25:18.393Z,26.80
2023-02-16T03:26:18.353Z,26.80
2023-02-16T03:27:18.403Z,26.79
2023-02-16T03:28:18.412Z,26.78
2023-02-16T03:29:18.454Z,26.78
2023-02-16T03:30:18.611Z,26.80
2023-02-16T03:31:18.645Z,26.77
2023-02-16T03:32:18.560Z,26.78
2023-02-16T03:33:18.576Z,26.79
2023-02-16T03:34:18.612Z,26.79
2023-02-16T03:35:18.628Z,26.78
2023-02-16T03:36:18.655Z,26.77
2023-02-16T03:37:18.686Z,26.77
2023-02-16T03:38:18.701Z,26.73
2023-02-16T03:39:19.146Z,26.75
2023-02-16T03:40:18.733Z,26.73
2023-02-16T03:41:18.758Z,26.74
2023-02-16T03:42:18.787Z,26.73
2023-02-16T03:43:18.798Z,26.73
2023-02-16T03:44:18.925Z,26.71
2023-02-16T03:45:18.894Z,26.70
2023-02-16T03:46:19.014Z,26.69
2023-02-16T03:47:19.049Z,26.68
2023-02-16T03:48:19.009Z,26.67
2023-02-16T03:49:19.068Z,26.66
2023-02-16T03:50:19.105Z,26.66
2023-02-16T03:51:19.137Z,26.68
2023-02-16T03:52:19.170Z,26.68
2023-02-16T03:53:19.226Z,26.68
2023-02-16T03:54:19.262Z,26.67
2023-02-16T03:55:19.289Z,26.70
2023-02-16T03:56:19.333Z,26.66
2023-02-16T03:57:19.368Z,26.67
2023-02-16T03:58:19.396Z,26.68
2023-02-16T03:59:19.467Z,26.66
2023-02-16T04:00:19.521Z,26.64
2023-02-16T04:01:19.572Z,26.66
2023-02-16T04:02:19.674Z,26.66
2023-02-16T04:03:19.672Z,26.67
2023-02-16T04:04:19.783Z,26.64
2023-02-16T04:05:19.730Z,26.68
2023-02-16T04:06:19.774Z,26.68
2023-02-16T04:07:19.779Z,26.72
2023-02-16T04:08:19.804Z,26.71
2023-02-16T04:09:19.849Z,26.74
2023-02-16T04:10:19.848Z,26.70
2023-02-16T04:11:19.850Z,26.72
2023-02-16T04:12:19.878Z,26.70
2023-02-16T04:13:19.900Z,26.72
2023-02-16T04:14:19.950Z,26.71
2023-02-16T04:15:20.059Z,26.72
2023-02-16T04:16:20.087Z,26.70
2023-02-16T04:17:20.066Z,26.70
2023-02-16T04:18:20.087Z,26.72
2023-02-16T04:19:20.102Z,26.72
2023-02-16T04:20:20.161Z,26.73
2023-02-16T04:21:20.190Z,26.74
2023-02-16T04:22:20.245Z,26.73
2023-02-16T04:23:20.261Z,26.75
2023-02-16T04:24:20.304Z,26.73
2023-02-16T04:25:21.148Z,26.71
2023-02-16T04:26:20.366Z,26.73
2023-02-16T04:27:21.099Z,26.72
2023-02-16T04:28:20.413Z,26.73
2023-02-16T04:29:20.439Z,26.70
2023-02-16T04:30:20.531Z,26.72
2023-02-16T04:31:20.582Z,26.73
2023-02-16T04:32:20.536Z,26.73
2023-02-16T04:33:20.563Z,26.73
2023-02-16T04:34:20.621Z,26.71
2023-02-16T04:35:20.622Z,26.74
2023-02-16T04:36:20.712Z,26.73
2023-02-16T04:37:20.646Z,26.77
2023-02-16T04:38:20.669Z,26.76
2023-02-16T04:39:20.698Z,26.73
2023-02-16T04:40:20.765Z,26.73
2023-02-16T04:41:20.766Z,26.74
2023-02-16T04:42:20.800Z,26.73
2023-02-16T04:43:20.835Z,26.73
2023-02-16T04:44:20.846Z,26.73
2023-02-16T04:45:21.658Z,26.74
2023-02-16T04:46:21.709Z,26.72
2023-02-16T04:47:20.912Z,26.71
2023-02-16T04:48:20.942Z,26.69
2023-02-16T04:49:20.977Z,26.72
2023-02-16T04:50:21.016Z,26.70
2023-02-16T04:51:21.019Z,26.72
2023-02-16T04:52:21.048Z,26.72
2023-02-16T04:53:21.096Z,26.74
2023-02-16T04:54:21.106Z,26.74
2023-02-16T04:55:21.135Z,26.78
2023-02-16T04:56:21.160Z,26.74
2023-02-16T04:57:21.183Z,26.73
2023-02-16T04:58:21.222Z,26.70
2023-02-16T04:59:21.247Z,26.71
2023-02-16T05:00:21.286Z,26.69
2023-02-16T05:01:21.375Z,26.68
2023-02-16T05:02:21.319Z,26.69
2023-02-16T05:03:21.350Z,26.69
2023-02-16T05:04:21.472Z,26.68
2023-02-16T05:05:22.167Z,26.66
2023-02-16T05:06:21.424Z,26.67
2023-02-16T05:07:21.451Z,26.67
2023-02-16T05:08:21.517Z,26.69
2023-02-16T05:09:21.684Z,26.67
2023-02-16T05:10:21.607Z,26.65
2023-02-16T05:11:21.644Z,26.66
2023-02-16T05:12:21.708Z,26.69
2023-02-16T05:13:21.688Z,26.67
2023-02-16T05:14:21.703Z,26.69
2023-02-16T05:15:21.700Z,26.72
2023-02-16T05:16:21.727Z,26.70
2023-02-16T05:17:21.746Z,26.70
2023-02-16T05:18:21.766Z,26.69
2023-02-16T05:19:21.772Z,26.68
2023-02-16T05:20:21.790Z,26.68
2023-02-16T05:21:21.812Z,26.73
2023-02-16T05:22:21.806Z,26.73
2023-02-16T05:23:21.817Z,26.74
2023-02-16T05:24:21.818Z,26.76
2023-02-16T05:25:21.834Z,26.75
2023-02-16T05:26:21.839Z,26.78
2023-02-16T05:27:21.892Z,26.74
2023-02-16T05:28:21.982Z,26.75
2023-02-16T05:29:21.984Z,26.76
2023-02-16T05:30:22.107Z,26.76
2023-02-16T05:31:22.240Z,26.77
2023-02-16T05:32:22.096Z,26.75
2023-02-16T05:33:22.064Z,26.77
2023-02-16T05:34:22.084Z,26.77
2023-02-16T05:35:22.110Z,26.76
2023-02-16T05:36:22.142Z,26.76
2023-02-16T05:37:22.174Z,26.78
2023-02-16T05:38:22.194Z,26.77
2023-02-16T05:39:22.223Z,26.78
2023-02-16T05:40:22.238Z,26.79
2023-02-16T05:41:22.262Z,26.78
2023-02-16T05:42:22.693Z,26.78
2023-02-16T05:43:22.295Z,26.80
2023-02-16T05:44:22.335Z,26.81
2023-02-16T05:45:22.378Z,26.83
2023-02-16T05:46:22.492Z,26.79
2023-02-16T05:47:22.462Z,26.82
2023-02-16T05:48:22.499Z,26.80
2023-02-16T05:49:22.549Z,26.82
2023-02-16T05:50:22.581Z,26.83
2023-02-16T05:51:22.608Z,26.84
2023-02-16T05:52:22.633Z,26.82
2023-02-16T05:53:22.667Z,26.80
2023-02-16T05:54:22.679Z,26.83
2023-02-16T05:55:22.717Z,26.82
2023-02-16T05:56:22.759Z,26.83
2023-02-16T05:57:22.778Z,26.83
2023-02-16T05:58:22.813Z,26.85
2023-02-16T05:59:22.851Z,26.86
2023-02-16T06:00:22.897Z,26.84
2023-02-16T06:01:23.069Z,26.87
2023-02-16T06:02:23.029Z,26.88
2023-02-16T06:03:23.087Z,26.88
2023-02-16T06:04:23.090Z,26.86
2023-02-16T06:05:23.182Z,26.89
2023-02-16T06:06:23.150Z,26.87
2023-02-16T06:07:23.172Z,26.89
2023-02-16T06:08:23.241Z,26.88
2023-02-16T06:09:23.709Z,26.90
2023-02-16T06:10:23.306Z,26.89
2023-02-16T06:11:23.368Z,26.91
2023-02-16T06:12:23.414Z,26.88
2023-02-16T06:13:23.483Z,26.87
2023-02-16T06:14:23.538Z,26.88
2023-02-16T06:15:23.596Z,26.91
2023-02-16T06:16:23.637Z,26.89
2023-02-16T06:17:23.630Z,26.89
2023-02-16T06:18:23.643Z,26.91
2023-02-16T06:19:23.647Z,26.93
2023-02-16T06:20:23.652Z,26.92
2023-02-16T06:21:23.652Z,26.90
2023-02-16T06:22:23.655Z,26.90
2023-02-16T06:23:23.665Z,26.93
2023-02-16T06:24:23.700Z,26.92
2023-02-16T06:25:23.710Z,26.93
2023-02-16T06:26:23.746Z,26.93
2023-02-16T06:27:23.802Z,26.92
2023-02-16T06:28:23.830Z,26.92
2023-02-16T06:29:23.852Z,26.94
2023-02-16T06:30:23.967Z,26.91
2023-02-16T06:31:23.987Z,26.93
2023-02-16T06:32:24.040Z,26.92
2023-02-16T06:33:23.920Z,26.91
2023-02-16T06:34:23.939Z,26.93
2023-02-16T06:35:23.975Z,26.94
2023-02-16T06:36:23.966Z,26.91
2023-02-16T06:37:24.789Z,26.95
2023-02-16T06:38:24.020Z,26.91
2023-02-16T06:39:24.051Z,26.90
2023-02-16T06:40:24.052Z,26.91
2023-02-16T06:41:24.042Z,26.90
2023-02-16T06:42:24.037Z,26.90
2023-02-16T06:43:24.048Z,26.89
2023-02-16T06:44:24.056Z,26.90
2023-02-16T06:45:24.074Z,26.88
2023-02-16T06:46:24.103Z,26.90
2023-02-16T06:47:24.204Z,26.88
2023-02-16T06:48:24.191Z,26.87
2023-02-16T06:49:27.354Z,26.83
2023-02-16T06:50:24.101Z,26.87
2023-02-16T06:51:24.109Z,26.86
2023-02-16T06:52:24.104Z,26.86
2023-02-16T06:53:24.113Z,26.87
2023-02-16T06:54:24.157Z,26.88
2023-02-16T06:55:24.126Z,26.89
2023-02-16T06:56:24.115Z,26.89
2023-02-16T06:57:24.755Z,26.87
2023-02-16T06:58:24.107Z,26.88
2023-02-16T06:59:24.116Z,26.86
2023-02-16T07:00:24.179Z,26.86
2023-02-16T07:01:24.111Z,26.86
2023-02-16T07:02:24.120Z,26.83
2023-02-16T07:03:24.154Z,26.84
2023-02-16T07:04:24.120Z,26.86
2023-02-16T07:05:24.116Z,26.84
2023-02-16T07:06:24.146Z,26.83
2023-02-16T07:07:24.119Z,26.84
2023-02-16T07:08:24.123Z,26.82
2023-02-16T07:09:24.159Z,26.83
2023-02-16T07:10:24.214Z,26.84
2023-02-16T07:11:24.142Z,26.84
2023-02-16T07:12:24.137Z,26.83
2023-02-16T07:13:24.144Z,26.82
2023-02-16T07:14:24.152Z,26.87
2023-02-16T07:15:24.153Z,26.83
2023-02-16T07:16:24.276Z,26.83
2023-02-16T07:17:24.161Z,26.87
2023-02-16T07:18:24.167Z,26.83
2023-02-16T07:19:24.166Z,26.82
2023-02-16T07:21:24.168Z,26.80
2023-02-16T07:22:24.172Z,26.82
2023-02-16T07:23:24.181Z,26.82
2023-02-16T07:24:24.181Z,26.80
2023-02-16T07:25:24.185Z,26.80
2023-02-16T07:26:24.197Z,26.80
2023-02-16T07:27:24.181Z,26.77
2023-02-16T09:46:28.283Z,26.10
2023-02-16T09:48:27.819Z,26.09
2023-02-16T09:49:27.847Z,26.04
2023-02-16T09:50:50.749Z,26.02
2023-02-16T09:51:34.493Z,26.04
2023-02-16T09:52:28.878Z,26.01
2023-02-16T09:53:27.897Z,25.98
2023-02-16T09:54:27.876Z,25.95
2023-02-16T09:55:27.880Z,25.93
2023-02-16T09:56:27.883Z,25.90
2023-02-16T09:57:27.885Z,25.88
2023-02-16T09:58:27.870Z,25.86
2023-02-16T09:59:27.860Z,25.85
2023-02-16T10:00:27.855Z,25.82
2023-02-16T10:01:28.301Z,25.80
2023-02-16T10:02:27.872Z,25.77
2023-02-16T10:03:27.825Z,25.75
2023-02-16T10:04:27.811Z,25.72
2023-02-16T10:05:27.823Z,25.72
2023-02-16T10:06:27.802Z,25.69
2023-02-16T10:19:28.271Z,25.57
2023-02-16T10:20:28.266Z,25.57
2023-02-16T10:38:28.278Z,25.36
2023-02-16T10:41:27.440Z,25.37
2023-02-16T10:42:27.454Z,25.34
2023-02-16T10:43:27.421Z,25.33
2023-02-16T10:44:27.413Z,25.34
2023-02-16T10:45:27.486Z,25.35
2023-02-16T10:46:27.446Z,25.34
2023-02-16T10:47:27.376Z,25.32
2023-02-16T10:48:27.355Z,25.35
2023-02-16T10:49:27.340Z,25.34
2023-02-16T10:50:27.331Z,25.31
2023-02-16T10:51:27.380Z,25.34
2023-02-16T10:52:27.294Z,25.32
2023-02-16T10:53:27.273Z,25.32
2023-02-16T10:54:27.263Z,25.31
2023-02-16T10:55:27.236Z,25.32
2023-02-16T10:56:27.220Z,25.31
2023-02-16T10:57:27.196Z,25.31
2023-02-16T10:58:27.179Z,25.32
2023-02-16T10:59:27.164Z,25.31
2023-02-16T11:00:27.238Z,25.30
2023-02-16T11:01:27.186Z,25.28
2023-02-16T11:02:27.125Z,25.28
2023-02-16T11:03:27.089Z,25.28
2023-02-16T11:04:27.143Z,25.29
2023-02-16T11:05:27.054Z,25.29
2023-02-16T11:06:27.791Z,25.28
2023-02-16T11:07:27.098Z,25.29
2023-02-16T11:08:28.659Z,25.28
2023-02-16T11:09:27.321Z,25.26
2023-02-16T11:10:27.367Z,25.25
2023-02-16T11:11:27.441Z,25.27
2023-02-16T11:12:27.470Z,25.25
2023-02-16T11:13:27.526Z,25.29
2023-02-16T11:14:27.552Z,25.27
2023-02-16T11:15:28.292Z,25.24
2023-02-16T11:16:27.660Z,25.26
2023-02-16T11:17:27.713Z,25.23
2023-02-16T11:18:27.758Z,25.23
2023-02-16T11:19:27.805Z,25.24
2023-02-16T11:20:27.834Z,25.23
2023-02-16T11:21:27.892Z,25.21
2023-02-16T11:22:27.955Z,25.22
2023-02-16T11:23:27.964Z,25.21
2023-02-16T11:24:28.022Z,25.21
2023-02-16T11:25:28.076Z,25.20
2023-02-16T11:26:28.081Z,25.21
2023-02-16T11:27:28.106Z,25.18
2023-02-16T11:28:28.137Z,25.19
2023-02-16T11:29:28.170Z,25.18
2023-02-16T11:30:28.211Z,25.17
2023-02-16T11:31:28.281Z,25.15
2023-02-16T11:32:28.298Z,25.17
2023-02-16T11:33:28.319Z,25.16
2023-02-16T11:34:28.317Z,25.17
2023-02-16T11:35:28.352Z,25.14
2023-02-16T11:36:28.366Z,25.16
2023-02-16T11:37:28.391Z,25.16
2023-02-16T11:38:28.817Z,25.13
2023-02-16T11:39:28.432Z,25.14
2023-02-16T11:40:28.448Z,25.14
2023-02-16T11:41:28.455Z,25.12
2023-02-16T11:42:28.482Z,25.12
2023-02-16T11:43:28.495Z,25.12
2023-02-16T11:44:28.508Z,25.11
2023-02-16T11:45:30.996Z,25.12
2023-02-16T11:46:28.601Z,25.09
2023-02-16T11:47:28.452Z,25.08
2023-02-16T11:48:28.468Z,25.08
2023-02-16T11:49:28.399Z,25.10
2023-02-16T11:50:28.376Z,25.10
2023-02-16T11:51:28.338Z,25.08
2023-02-16T11:52:28.310Z,25.07
2023-02-16T11:53:28.286Z,25.06
2023-02-16T11:54:28.256Z,25.10
2023-02-16T11:55:28.256Z,25.05
2023-02-16T11:56:28.202Z,25.05
2023-02-16T11:57:28.179Z,25.04
2023-02-16T11:58:28.170Z,25.05
2023-02-16T11:59:28.115Z,25.04
2023-02-16T12:00:28.136Z,25.04
2023-02-16T12:01:28.059Z,25.03
2023-02-16T12:02:28.043Z,25.03
2023-02-16T12:03:30.455Z,25.03
2023-02-16T12:04:28.807Z,25.02
2023-02-16T12:05:27.966Z,25.03
2023-02-16T12:06:27.913Z,24.99
2023-02-16T12:07:27.904Z,25.01
2023-02-16T12:08:27.896Z,25.00
2023-02-16T12:09:29.577Z,24.99
2023-02-16T12:10:27.836Z,25.00
2023-02-16T12:11:27.816Z,25.00
2023-02-16T15:19:28.375Z,26.42
2023-02-16T16:02:27.815Z,27.12
2023-02-16T16:03:27.852Z,27.17
2023-02-16T16:04:27.917Z,27.14
2023-02-16T16:05:27.927Z,27.18
2023-02-16T16:06:27.951Z,27.20
2023-02-16T16:07:27.994Z,27.21
2023-02-16T16:08:28.049Z,27.24
2023-02-16T16:09:28.083Z,27.23
2023-02-16T16:10:28.131Z,27.25
2023-02-16T16:11:28.179Z,27.26
2023-02-16T16:12:28.223Z,27.25
2023-02-16T16:13:28.284Z,27.28
2023-02-16T16:14:28.338Z,27.29
2023-02-16T16:23:28.792Z,27.38
2023-02-16T16:24:28.814Z,27.41
2023-02-16T16:25:28.875Z,27.40
2023-02-16T16:26:28.938Z,27.40
2023-02-16T16:27:28.987Z,27.41
2023-02-16T16:28:29.016Z,27.43
2023-02-16T16:29:29.042Z,27.45
2023-02-16T16:30:29.105Z,27.46
2023-02-16T16:31:29.142Z,27.47
2023-02-16T16:32:29.123Z,27.48
2023-02-16T16:33:29.147Z,27.46
2023-02-16T16:34:29.187Z,27.49
2023-02-16T16:35:29.250Z,27.49
2023-02-16T16:36:29.282Z,27.50
2023-02-16T16:37:29.307Z,27.51
2023-02-16T16:38:29.321Z,27.52
2023-02-16T16:39:29.343Z,27.53
2023-02-16T16:40:29.358Z,27.54
2023-02-16T16:41:29.355Z,27.55
2023-02-16T16:42:29.357Z,27.55
2023-02-16T16:43:29.383Z,27.56
2023-02-16T16:44:29.365Z,27.56
2023-02-16T16:45:29.401Z,27.57
2023-02-16T16:46:29.362Z,27.62
2023-02-16T16:47:29.375Z,27.60
2023-02-16T16:48:29.422Z,27.60
2023-02-16T16:49:29.404Z,27.60
2023-02-16T16:50:29.389Z,27.63
2023-02-16T16:51:29.380Z,27.62
2023-02-16T16:52:29.956Z,27.63
2023-02-16T16:53:29.402Z,27.64
2023-02-16T16:54:29.377Z,27.66
2023-02-16T16:55:29.367Z,27.66
2023-02-16T16:56:29.378Z,27.66
2023-02-16T16:57:30.188Z,27.66
2023-02-16T16:58:29.389Z,27.67
2023-02-16T16:59:29.429Z,27.66
2023-02-16T17:00:29.387Z,27.68
2023-02-16T17:01:29.433Z,27.70
2023-02-16T17:02:29.393Z,27.72
2023-02-16T17:03:30.573Z,27.72
2023-02-16T17:04:29.433Z,27.73
2023-02-16T17:05:29.405Z,27.74
2023-02-16T17:06:29.406Z,27.73
2023-02-16T17:07:29.404Z,27.76
2023-02-16T17:08:29.434Z,27.75
2023-02-16T17:09:29.423Z,27.77
2023-02-16T17:10:29.448Z,27.76
2023-02-16T17:11:29.439Z,27.76
2023-02-16T17:12:29.478Z,27.76
2023-02-16T17:13:29.453Z,27.76
2023-02-16T17:14:29.456Z,27.78
2023-02-16T17:15:29.455Z,27.79
2023-02-16T17:16:29.467Z,27.79
2023-02-16T17:17:29.429Z,27.78
2023-02-16T17:18:29.428Z,27.82
2023-02-16T17:19:29.477Z,27.85
2023-02-16T17:20:29.435Z,27.85
2023-02-16T17:21:29.439Z,27.83
2023-02-16T17:22:29.444Z,27.83
2023-02-16T17:23:29.424Z,27.85
2023-02-16T17:24:29.438Z,27.85
2023-02-16T17:25:29.428Z,27.86
2023-02-16T17:26:29.424Z,27.86
2023-02-16T17:27:29.510Z,27.86
2023-02-16T17:28:29.497Z,27.85
2023-02-16T17:29:29.459Z,27.88
2023-02-16T17:30:29.461Z,27.88
2023-02-16T17:31:29.526Z,27.89
2023-02-16T17:32:29.475Z,27.91
2023-02-16T17:33:29.465Z,27.90
2023-02-16T17:34:29.467Z,27.90
2023-02-16T17:35:29.474Z,27.90
2023-02-16T17:36:29.471Z,27.89
2023-02-16T17:37:29.467Z,27.90
2023-02-16T17:38:29.476Z,27.91
2023-02-16T17:39:29.494Z,27.93
2023-02-16T17:40:29.498Z,27.93
2023-02-16T17:41:29.497Z,27.93
2023-02-16T17:42:29.508Z,27.94
2023-02-16T17:43:29.521Z,27.95
2023-02-16T17:44:29.522Z,27.94
2023-02-16T17:45:29.523Z,27.98
2023-02-16T17:46:29.543Z,27.99
2023-02-16T17:47:29.544Z,27.99
2023-02-16T17:48:29.556Z,27.98
2023-02-16T17:49:29.559Z,27.99
2023-02-16T17:50:29.624Z,27.95
2023-02-16T17:51:29.628Z,27.98
2023-02-16T17:52:29.589Z,27.97
2023-02-16T17:53:29.585Z,27.99
2023-02-16T17:54:29.667Z,27.97
2023-02-16T17:55:29.597Z,27.98
2023-02-16T17:56:29.598Z,27.97
2023-02-16T17:57:29.609Z,27.98
2023-02-16T18:27:29.983Z,28.07
2023-02-16T18:28:30.009Z,28.05
2023-02-16T18:30:30.217Z,28.06
2023-02-16T18:31:30.154Z,28.05
2023-02-16T18:32:30.150Z,28.07
2023-02-16T18:33:30.096Z,28.06
2023-02-16T18:34:30.116Z,28.06
2023-02-16T18:35:30.139Z,28.08
2023-02-16T18:36:30.138Z,28.06
2023-02-16T18:37:30.158Z,28.06
2023-02-16T18:38:30.186Z,28.08
2023-02-16T18:39:30.262Z,28.05
2023-02-16T18:40:30.239Z,28.08
2023-02-16T18:41:30.244Z,28.06
2023-02-16T18:42:30.252Z,28.08
2023-02-16T18:43:30.284Z,28.07
2023-02-16T18:44:30.311Z,28.10
2023-02-16T18:45:30.327Z,28.08
2023-02-16T18:46:30.389Z,28.10
2023-02-16T21:29:38.034Z,28.29
2023-02-16T21:37:37.999Z,28.30
2023-02-16T21:39:37.618Z,28.29
2023-02-16T21:40:37.650Z,28.31
2023-02-16T21:41:37.695Z,28.30
2023-02-16T21:42:38.493Z,28.31
2023-02-16T21:43:37.820Z,28.31
2023-02-16T21:44:37.878Z,28.30
2023-02-16T21:45:37.963Z,28.31
2023-02-16T21:46:37.986Z,28.30
2023-02-16T21:47:38.054Z,28.32
2023-02-16T21:48:38.115Z,28.33
2023-02-16T21:49:38.172Z,28.33
2023-02-16T21:50:38.234Z,28.31
2023-02-16T21:51:38.299Z,28.33
2023-02-16T21:52:38.352Z,28.32
2023-02-16T21:53:38.424Z,28.31
2023-02-16T21:54:38.476Z,28.32
2023-02-16T21:55:38.545Z,28.32
2023-02-16T21:56:38.603Z,28.31
2023-02-16T21:57:38.668Z,28.31
2023-02-16T21:58:38.733Z,28.31
2023-02-16T21:59:39.013Z,28.33
2023-02-16T22:00:38.950Z,28.31
2023-02-16T22:01:38.928Z,28.30
2023-02-16T22:02:38.974Z,28.32
2023-02-16T22:03:39.109Z,28.29
2023-02-16T22:04:39.521Z,28.28
2023-02-16T22:05:39.163Z,28.31
2023-02-16T22:06:39.253Z,28.31
2023-02-16T22:07:39.298Z,28.31
2023-02-16T22:08:39.345Z,28.31
2023-02-16T22:09:39.482Z,28.30
2023-02-16T22:10:39.468Z,28.32
2023-02-16T22:11:39.540Z,28.31
2023-02-16T22:12:39.591Z,28.31
2023-02-16T22:13:39.669Z,28.32
2023-02-16T22:14:39.781Z,28.31
2023-02-16T22:15:39.789Z,28.30
2023-02-16T22:16:39.866Z,28.29
2023-02-16T22:17:42.518Z,28.31
2023-02-16T22:18:40.147Z,28.30
2023-02-16T22:19:40.219Z,28.31
2023-02-16T22:20:40.271Z,28.31
2023-02-16T22:21:40.339Z,28.29
2023-02-16T22:22:40.406Z,28.31
2023-02-16T22:23:40.467Z,28.30
2023-02-16T22:24:40.539Z,28.30
2023-02-16T22:25:40.600Z,28.29
2023-02-16T22:26:40.658Z,28.29
2023-02-16T22:27:40.730Z,28.32
2023-02-16T22:28:40.792Z,28.29
2023-02-16T22:29:40.873Z,28.30
2023-02-16T22:30:40.932Z,28.29
2023-02-16T22:31:41.049Z,28.29
2023-02-16T22:32:41.104Z,28.31
2023-02-16T22:33:41.144Z,28.32
2023-02-16T22:34:41.214Z,28.31
2023-02-16T22:35:41.283Z,28.34
2023-02-16T22:36:41.339Z,28.30
2023-02-16T22:37:41.416Z,28.30
2023-02-16T22:38:41.474Z,28.29
2023-02-16T22:39:41.547Z,28.31
2023-02-16T22:40:41.598Z,28.33
2023-02-16T22:41:41.666Z,28.31
2023-02-16T22:42:41.721Z,28.33
2023-02-16T22:43:41.776Z,28.33
2023-02-16T22:44:41.856Z,28.31
2023-02-16T22:45:41.973Z,28.33
2023-02-16T22:46:41.993Z,28.34
2023-02-16T22:47:42.022Z,28.33
2023-02-16T22:48:43.032Z,28.34
2023-02-16T22:49:42.141Z,28.35
2023-02-16T22:50:42.229Z,28.32
2023-02-16T22:51:42.272Z,28.32
2023-02-16T22:52:42.314Z,28.36
2023-02-16T22:53:42.390Z,28.33
2023-02-16T22:54:42.456Z,28.34
2023-02-16T22:55:42.515Z,28.32
2023-02-16T22:56:42.583Z,28.35
2023-02-16T22:57:42.633Z,28.34
2023-02-16T22:58:42.699Z,28.36
2023-02-16T22:59:42.778Z,28.34
2023-02-16T23:00:42.842Z,28.34
2023-02-16T23:01:42.924Z,28.35
2023-02-16T23:02:42.982Z,28.33
2023-02-16T23:03:43.126Z,28.33
2023-02-16T23:04:43.440Z,28.33
2023-02-16T23:05:43.184Z,28.34
2023-02-16T23:06:43.346Z,28.34
2023-02-16T23:07:43.412Z,28.34
2023-02-16T23:08:43.397Z,28.34
2023-02-16T23:09:43.490Z,28.34
2023-02-16T23:10:43.571Z,28.36
2023-02-16T23:11:43.683Z,28.37
2023-02-16T23:12:43.673Z,28.40
2023-02-16T23:13:43.756Z,28.38
2023-02-16T23:14:43.827Z,28.35
2023-02-16T23:15:43.897Z,28.36
2023-02-16T23:16:44.044Z,28.35
2023-02-16T23:17:44.042Z,28.38
2023-02-16T23:18:44.107Z,28.36
2023-02-16T23:19:44.244Z,28.37
2023-02-16T23:20:44.257Z,28.35
2023-02-16T23:21:44.324Z,28.36